TAF Text Data
IDs:
Format:
Raw Decoded Include METAR

Data at: 0504 UTC 27 Jan 2021

Region: TOP
KATL 270350Z 2704/2806 25006KT P6SM BKN080
  FM270800 04005KT P6SM -SHRA OVC050
  FM271100 05007KT 5SM -SHRA SCT008 OVC020
  FM271500 08009KT 4SM -SHRA BR BKN008 OVC015
  FM272100 29012G20KT P6SM VCSH SCT008 OVC020
  FM280300 32018G28KT P6SM BKN025


KBOS 262333Z 2700/2806 07006KT 2SM -SN BKN018 OVC025
  FM270200 06007KT 4SM -SN OVC012
  FM270800 04007KT 5SM BR OVC008


KBWI 270300Z 2703/2806 00000KT 3SM BR BKN007 OVC012
  FM270600 00000KT 1/2SM FG OVC003
  FM271200 28005KT 1SM BR FEW010 SCT025
  FM271400 30006KT 4SM BR SCT025
  FM272000 33009G16KT P6SM BKN035
  FM280100 34008KT P6SM BKN030


KCLE 270300Z 2703/2806 32009KT P6SM OVC010
  FM271000 34009KT P6SM VCSH OVC008
  FM271600 35014KT P6SM BKN015


KCLT 270442Z 2705/2806 00000KT 1SM BR SCT002 BKN120
  TEMPO 2705/2707 1/2SM FG BKN002
  FM270700 VRB02KT 1SM BR OVC003
  FM271100 VRB02KT 3SM BR VCSH OVC004
  FM271500 13004KT 6SM BR VCSH OVC005
  PROB30 2717/2723 2SM -SHRA BR OVC003
  FM280000 02007KT 4SM -SHRA BR OVC004


KCVG 262347Z 2700/2806 30012KT P6SM SCT015 OVC025
  FM270700 35009KT P6SM BKN018
  FM271500 04009KT P6SM SCT015 OVC150
  FM272100 01009KT 5SM -SN BR OVC015
  TEMPO 2722/2801 2SM -SN BR
  FM280300 35012KT P6SM SCT025 OVC080


KDCA 270300Z 2703/2806 22003KT 5SM BR BKN003 OVC007
  FM270600 00000KT 1/2SM FG BKN003 OVC007
  FM271200 32006KT 2SM BR SCT010 BKN030
  FM271400 32007KT 4SM BR SCT030
  FM271800 34012G19KT P6SM SCT030 BKN100
  FM280100 34009KT P6SM BKN030


KDEN 270443Z 2705/2806 35005KT 3SM -SN BR OVC050
  FM270600 24006KT P6SM VCSH BKN050
  FM270800 21007KT P6SM SCT050
  FM271100 19007KT P6SM VCFG FEW002 FEW200
  TEMPO 2712/2716 1/4SM FZFG VV002
  FM271600 18010KT P6SM FEW200
  FM272100 35008KT P6SM FEW200
  FM280300 20007KT P6SM FEW200


KDFW 270307Z 2703/2806 36012KT P6SM VCSH BKN070
  FM270600 35008KT P6SM BKN100
  FM271100 32009KT P6SM SCT250
  FM271600 34015KT P6SM FEW250


KDTW 270315Z 2703/2806 34011KT P6SM OVC015
  FM271100 35010KT P6SM BKN025 OVC035
  FM271400 34009KT P6SM SCT025 BKN250
  FM272000 35010KT P6SM BKN035


KEWR 270236Z 2703/2806 02008KT 5SM -SHRAPL BR OVC006
  FM270500 04006KT 3SM -RA BR OVC005
  FM270900 35005KT 3SM -DZ BR OVC006
  FM271300 33008KT P6SM SCT006 OVC015
  FM271800 33009KT P6SM SCT015 BKN025


KFLL 270242Z 2703/2806 VRB05KT P6SM FEW015 SCT200
  FM271400 20011KT P6SM FEW035 SCT250
  FM280100 23008KT P6SM FEW090 SCT250


KIAD 270300Z 2703/2806 00000KT 1SM BR OVC003
  FM270500 VRB03KT 1/2SM FG SCT001 BKN005
  FM271400 32005KT 3SM BR SCT008 BKN030
  FM271600 33007KT 5SM BR SCT030
  FM271800 32011G18KT P6SM FEW100 SCT200
  FM280100 34008KT P6SM BKN050


KIAH 270329Z 2703/2806 11007KT P6SM BKN035
  FM271100 33010KT P6SM SCT025 SCT250
  FM272000 36015G25KT P6SM FEW250
  FM280100 34008KT P6SM SKC


KJFK 270236Z 2703/2806 02009KT 5SM -SHRAPL BR OVC006
  FM270500 02007KT 5SM -SHRA BR OVC005
  FM270900 36006KT 5SM -DZ BR OVC006
  FM271300 33008KT P6SM SCT006 OVC011
  FM271800 34010KT P6SM SCT015 BKN025


KLAS 270239Z 2703/2806 07006KT P6SM SCT050 BKN200
  FM270600 19006KT P6SM FEW050 BKN150
  FM271400 20008KT P6SM VCSH SCT030 BKN080
  FM272000 12008KT P6SM BKN080


KLAX 270323Z 2703/2806 VRB03KT P6SM BKN120
  FM270700 14008KT P6SM SCT050 OVC090
  FM271100 11006KT P6SM OVC040
  FM271400 11010KT P6SM OVC040
  FM271700 13010KT P6SM VCSH OVC040
  FM271900 17008KT P6SM VCSH OVC040


KLGA 270236Z 2703/2806 03010KT 5SM -SHRAPL BR OVC005
  FM270500 02009KT 5SM -SHRA BR OVC005
  FM270900 01006KT 5SM -DZ BR OVC006
  FM271300 33008KT P6SM SCT006 OVC012
  FM271800 35010KT P6SM SCT015 BKN025


KMCO 270311Z 2703/2806 21004KT P6SM SCT035 SCT250
  FM270600 VRB02KT 3SM BR SCT003 BKN010
  TEMPO 2709/2713 1/4SM FG OVC003
  FM271500 21008KT P6SM SCT005 BKN015
  FM271800 23010KT P6SM SCT030
  FM280300 25008KT P6SM BKN025


KMDW 270300Z 2703/2806 35012G18KT P6SM BKN020
  FM271100 01010KT P6SM -SN BKN020
  TEMPO 2712/2715 3SM -SHSN BKN015
  FM271800 36012KT P6SM BKN020


KMEM 270258Z 2703/2806 02009KT P6SM BKN150
  FM270800 04009KT P6SM BKN025
  FM271400 01009KT P6SM VCSH OVC010
  TEMPO 2715/2719 4SM -SHRASN OVC007
  FM271900 34010KT P6SM BKN010
  FM280400 01008KT P6SM BKN040


KMIA 270242Z 2703/2806 VRB05KT P6SM FEW010 SCT020
  FM271500 20010KT P6SM FEW035 SCT250
  FM280100 23006KT P6SM FEW090 SCT250


KMSP 270251Z 2703/2806 01008KT P6SM SCT080 BKN250
  FM270600 36006KT P6SM BKN080
  FM271800 34005KT P6SM SCT070


KORD 270300Z 2703/2806 35012G18KT P6SM BKN020
  FM271200 01010KT P6SM -SN BKN020
  FM271800 36012KT P6SM BKN020


KPDX 270305Z 2703/2724 10020G30KT P6SM -SHRA SCT020 OVC045
  FM271000 12015KT P6SM -SHRA BKN020 OVC040
  FM272100 10008KT P6SM BKN060


KPHL 270416Z 2704/2806 VRB03KT 5SM BR OVC005
  FM270600 30004KT 6SM BR OVC008
  FM270800 27005KT P6SM OVC015
  FM271000 27006KT P6SM OVC025
  FM271200 29010KT P6SM BKN035
  FM271400 31012G19KT P6SM BKN040
  FM272100 34010KT P6SM BKN150


KPHX 270308Z 2703/2806 07005KT P6SM FEW070 SCT100 SCT150
  FM271800 08012KT P6SM FEW060 SCT120
  FM280100 08006KT P6SM FEW080 SCT200


KPIT 270250Z 2703/2806 28010KT P6SM OVC015
  FM271500 32010KT P6SM OVC020
  FM280300 34008KT P6SM OVC015


KSAN 270235Z 2703/2806 VRB04KT P6SM SCT050 SCT120
  FM271800 22007KT P6SM BKN050
  FM280200 VRB04KT P6SM SCT030


KSEA 270304Z 2703/2806 12012G22KT P6SM OVC040
  FM270900 08007KT P6SM SCT025 OVC040
  PROB30 2712/2716 -RASN SCT015 OVC025
  FM271600 12004KT P6SM SCT020 OVC035
  FM272000 10005KT P6SM SCT025 OVC040


KSFO 270254Z 2703/2806 15024G38KT 5SM -RA BR BKN025 OVC040 WS020/19050KT
  FM270400 15026G45KT 5SM -RA BR OVC025 WS020/19050KT
  FM270600 16032G54KT 4SM +RA BR SCT015 OVC025 WS020/20060KT
  FM271100 19015G25KT 5SM -RA BR BKN015 OVC020 WS020/20040KT
  FM271800 17011G18KT 6SM -SHRA BR OVC015
  FM272300 15016G26KT 5SM -SHRA BR OVC020
  FM280300 13021G30KT 4SM -SHRA BR BKN020 OVC030


KSLC 270347Z 2704/2806 15008KT P6SM SCT040 BKN070
  TEMPO 2704/2706 2SM BCFG
  FM271600 16014G23KT P6SM SCT070 BKN100
  FM271800 17020G30KT P6SM VCSH SCT070 BKN090


KSTL 270302Z 2703/2806 34005KT P6SM OVC014
  FM271200 04005KT P6SM VCSH OVC011
  FM271300 02005KT 2SM -SN BR OVC008
  FM271800 36007KT P6SM OVC011
  FM280100 35007KT P6SM BKN050


KTPA 270300Z 2703/2806 18005KT 5SM BR SCT002
  TEMPO 2703/2707 3/4SM BR BKN002
  FM270700 19004KT 2SM BR SCT005 BKN015
  TEMPO 2707/2711 1/2SM FG SCT003 BKN005
  FM271500 21010KT P6SM FEW008 BKN015
  FM271800 22010G15KT P6SM SCT015 SCT030
  FM280000 24008KT 6SM -SHRA BKN015